createdAt,value
2023-03-06T00:03:41.717Z,99085.40
2023-03-06T00:08:45.335Z,99086.00
2023-03-06T00:13:48.986Z,99083.80
2023-03-06T00:18:52.797Z,99081.80
2023-03-06T00:23:56.458Z,99080.80
2023-03-06T00:29:00.117Z,99077.80
2023-03-06T00:34:04.378Z,99079.60
2023-03-06T00:39:09.330Z,99077.40
2023-03-06T00:44:13.014Z,99076.60
2023-03-06T00:49:16.810Z,99073.20
2023-03-06T00:54:20.677Z,99071.00
2023-03-06T00:59:24.352Z,99068.20
2023-03-06T01:04:27.873Z,99069.40
2023-03-06T01:09:32.082Z,99067.80
2023-03-06T01:14:36.510Z,99064.20
2023-03-06T01:19:40.076Z,99064.00
2023-03-06T01:24:43.719Z,99061.20
2023-03-06T01:29:47.314Z,99059.40
2023-03-06T01:34:51.034Z,99055.60
2023-03-06T01:39:54.721Z,99052.20
2023-03-06T01:45:18.189Z,99056.20
2023-03-06T01:50:22.458Z,99051.40
2023-03-06T01:55:33.449Z,99053.00
2023-03-06T02:00:37.040Z,99047.00
2023-03-06T02:05:44.047Z,99042.80
2023-03-06T02:11:20.843Z,99036.80
2023-03-06T02:16:30.670Z,99037.20
2023-03-06T02:21:37.888Z,99030.40
2023-03-06T02:26:43.490Z,99032.00
2023-03-06T02:31:47.194Z,99033.60
2023-03-06T02:37:09.185Z,99035.80
2023-03-06T02:42:20.172Z,99036.80
2023-03-06T02:47:23.956Z,99031.60
2023-03-06T02:52:27.537Z,99025.00
2023-03-06T02:57:31.206Z,99022.80
2023-03-06T03:02:34.803Z,99023.80
2023-03-06T03:07:38.486Z,99021.40
2023-03-06T03:12:42.795Z,99021.20
2023-03-06T03:17:46.406Z,99022.60
2023-03-06T03:22:53.628Z,99010.60
2023-03-06T03:27:57.248Z,99012.20
2023-03-06T03:33:00.875Z,99009.00
2023-03-06T03:38:04.830Z,99010.20
2023-03-06T03:43:08.371Z,99012.20
2023-03-06T03:48:11.914Z,99012.40
2023-03-06T03:53:15.529Z,99010.40
2023-03-06T03:58:19.001Z,99002.60
2023-03-06T04:03:22.545Z,98993.80
2023-03-06T04:08:27.722Z,98995.80
2023-03-06T04:13:31.289Z,99001.20
2023-03-06T04:18:35.036Z,98995.00
2023-03-06T04:23:38.735Z,98993.20
2023-03-06T04:28:42.365Z,98992.40
2023-03-06T04:33:46.009Z,98989.80
2023-03-06T04:38:49.522Z,98989.20
2023-03-06T04:43:53.754Z,98981.20
2023-03-06T04:48:57.306Z,98979.60
2023-03-06T04:54:01.233Z,98982.00
2023-03-06T04:59:04.989Z,98977.20
2023-03-06T05:04:08.701Z,98978.00
2023-03-06T05:09:12.176Z,98982.80
2023-03-06T05:14:15.876Z,98981.60
2023-03-06T05:19:19.404Z,98981.40
2023-03-06T05:24:23.246Z,98981.80
2023-03-06T05:29:27.841Z,98983.20
2023-03-06T05:34:31.717Z,98982.60
2023-03-06T05:39:35.305Z,98980.00
2023-03-06T05:44:38.965Z,98978.80
2023-03-06T05:49:42.729Z,98974.80
2023-03-06T05:54:52.153Z,98985.40
2023-03-06T05:59:55.711Z,98978.00
2023-03-06T06:05:05.557Z,98980.80
2023-03-06T06:10:11.369Z,98978.00
2023-03-06T06:15:15.792Z,98980.40
2023-03-06T06:20:19.660Z,98990.40
2023-03-06T06:25:23.195Z,98995.40
2023-03-06T06:30:26.915Z,98991.00
2023-03-06T06:35:30.420Z,98996.40
2023-03-06T06:40:34.133Z,98997.60
2023-03-06T06:45:37.887Z,98994.20
2023-03-06T06:50:41.721Z,98993.40
2023-03-06T06:55:45.402Z,98992.00
2023-03-06T07:00:49.081Z,98993.80
2023-03-06T07:05:56.457Z,98995.20
2023-03-06T07:11:07.546Z,98992.00
2023-03-06T07:16:11.581Z,98995.20
2023-03-06T07:21:15.667Z,98997.20
2023-03-06T07:26:19.511Z,98997.80
2023-03-06T07:31:27.381Z,98999.20
2023-03-06T07:36:31.220Z,98999.60
2023-03-06T07:41:35.762Z,98998.20
2023-03-06T07:46:39.557Z,98997.00
2023-03-06T07:51:43.521Z,99002.40
2023-03-06T07:56:51.911Z,99007.40
2023-03-06T08:01:57.869Z,99004.80
2023-03-06T08:07:01.744Z,99007.00
2023-03-06T08:12:06.498Z,99009.60
2023-03-06T08:17:10.541Z,99011.20
2023-03-06T08:22:14.645Z,99011.80
2023-03-06T08:27:18.602Z,99019.40
2023-03-06T08:32:22.779Z,99018.20
2023-03-06T08:37:26.752Z,99010.00
2023-03-06T08:42:31.911Z,99010.80
2023-03-06T08:47:36.742Z,99011.40
2023-03-06T08:52:40.571Z,99011.80
2023-03-06T08:57:44.606Z,99016.60
2023-03-06T09:02:48.667Z,99017.00
2023-03-06T09:07:52.759Z,99019.80
2023-03-06T09:12:56.592Z,99023.60
2023-03-06T09:18:00.610Z,99012.00
2023-03-06T09:23:04.652Z,99016.80
2023-03-06T09:28:11.581Z,99018.20
2023-03-06T09:33:17.139Z,99015.80
2023-03-06T09:38:25.513Z,99013.60
2023-03-06T09:43:42.174Z,99012.80
2023-03-06T09:49:10.574Z,99021.40
2023-03-06T09:58:30.430Z,99009.20
2023-03-06T10:03:37.304Z,99002.40
2023-03-06T10:08:48.716Z,98999.20
2023-03-06T10:14:19.870Z,98991.40
2023-03-06T10:19:32.096Z,99001.00
2023-03-06T10:24:54.763Z,98987.40
2023-03-06T10:30:23.478Z,98992.20
2023-03-06T10:35:41.999Z,98990.60
2023-03-06T10:41:26.181Z,98982.20
2023-03-06T10:46:40.127Z,98981.80
2023-03-06T10:52:05.747Z,98980.60
2023-03-06T10:57:25.326Z,98974.00
2023-03-06T11:02:41.372Z,98978.00
2023-03-06T11:08:00.728Z,98976.60
2023-03-06T11:13:26.528Z,98973.40
2023-03-06T11:18:35.230Z,98965.40
2023-03-06T11:23:46.836Z,98966.60
2023-03-06T11:29:09.154Z,98966.40
2023-03-06T11:34:31.941Z,98962.80
2023-03-06T11:39:48.271Z,98963.60
2023-03-06T11:45:03.176Z,98962.60
2023-03-06T11:50:41.717Z,98966.00
2023-03-06T11:56:20.181Z,98970.80
2023-03-06T12:02:05.238Z,98964.40
2023-03-06T12:07:53.067Z,98965.40
2023-03-06T12:13:08.052Z,98965.80
2023-03-06T12:18:43.931Z,98966.60
2023-03-06T12:24:30.155Z,98963.20
2023-03-06T12:30:18.618Z,98965.20
2023-03-06T12:35:58.248Z,98971.20
2023-03-06T12:41:36.118Z,98969.20
2023-03-06T12:46:52.632Z,98968.00
2023-03-06T12:51:59.952Z,98974.00
2023-03-06T12:57:09.199Z,98967.20
2023-03-06T13:02:41.982Z,98961.40
2023-03-06T13:08:19.632Z,98964.00
2023-03-06T13:13:44.894Z,98959.00
2023-03-06T13:19:12.378Z,98958.40
2023-03-06T13:24:40.462Z,98958.40
2023-03-06T13:29:53.144Z,98951.00
2023-03-06T13:34:57.211Z,98948.60
2023-03-06T13:40:00.921Z,98950.20
2023-03-06T13:45:38.745Z,98945.80
2023-03-06T13:50:47.089Z,98938.80
2023-03-06T13:56:27.772Z,98941.40
2023-03-06T14:01:59.503Z,98948.80
2023-03-06T14:07:27.147Z,98946.80
2023-03-06T14:12:40.764Z,98944.40
2023-03-06T14:18:01.955Z,98942.80
2023-03-06T14:24:02.262Z,98938.40
2023-03-06T14:29:18.640Z,98935.20
2023-03-06T14:34:30.882Z,98935.40
2023-03-06T14:39:46.995Z,98929.80
2023-03-06T14:45:16.280Z,98915.00
2023-03-06T14:50:33.499Z,98919.80
2023-03-06T14:55:38.582Z,98914.80
2023-03-06T15:00:47.343Z,98917.00
2023-03-06T15:05:53.697Z,98914.80
2023-03-06T15:11:05.404Z,98920.00
2023-03-06T15:16:30.161Z,98927.40
2023-03-06T15:21:39.397Z,98922.00
2023-03-06T15:26:43.074Z,98923.60
2023-03-06T15:31:48.363Z,98931.60
2023-03-06T15:36:56.419Z,98930.00
2023-03-06T15:42:22.297Z,98927.40
2023-03-06T15:47:26.541Z,98931.40
2023-03-06T15:52:30.366Z,98926.80
2023-03-06T15:57:35.651Z,98926.00
2023-03-06T16:02:41.522Z,98921.20
2023-03-06T16:07:47.140Z,98925.00
2023-03-06T16:13:13.268Z,98923.20
2023-03-06T16:18:18.692Z,98924.60
2023-03-06T16:23:22.815Z,98928.40
2023-03-06T16:28:28.307Z,98923.80
2023-03-06T16:33:32.215Z,98922.60
2023-03-06T16:38:36.322Z,98921.40
2023-03-06T16:43:40.540Z,98923.20
2023-03-06T16:48:46.668Z,98921.80
2023-03-06T16:53:54.055Z,98924.20
2023-03-06T16:59:00.313Z,98921.00
2023-03-06T17:04:06.698Z,98918.00
2023-03-06T17:09:11.691Z,98922.20
2023-03-06T17:14:15.825Z,98926.20
2023-03-06T17:19:19.949Z,98929.20
2023-03-06T17:24:24.086Z,98931.80
2023-03-06T17:29:33.606Z,98931.40
2023-03-06T17:34:40.942Z,98935.40
2023-03-06T17:39:44.786Z,98930.00
2023-03-06T17:44:48.859Z,98929.80
2023-03-06T17:49:52.626Z,98922.20
2023-03-06T17:54:56.343Z,98924.00
2023-03-06T18:00:00.387Z,98925.40
2023-03-06T18:05:05.107Z,98928.40
2023-03-06T18:10:10.178Z,98928.80
2023-03-06T18:15:16.311Z,98924.40
2023-03-06T18:20:21.601Z,98926.40
2023-03-06T18:25:25.340Z,98925.80
2023-03-06T18:30:30.201Z,98928.80
2023-03-06T18:35:35.869Z,98923.40
2023-03-06T18:40:42.339Z,98930.00
2023-03-06T18:45:57.496Z,98932.20
2023-03-06T18:51:11.204Z,98936.00
2023-03-06T18:56:22.185Z,98931.20
2023-03-06T19:01:27.293Z,98932.00
2023-03-06T19:06:32.509Z,98933.40
2023-03-06T19:11:38.872Z,98934.00
2023-03-06T19:16:43.945Z,98936.40
2023-03-06T19:21:48.783Z,98925.80
2023-03-06T19:26:54.552Z,98926.60
2023-03-06T19:31:59.755Z,98927.60
2023-03-06T19:37:05.393Z,98925.20
2023-03-06T19:42:09.956Z,98925.60
2023-03-06T19:47:14.705Z,98925.00
2023-03-06T19:52:19.080Z,98929.00
2023-03-06T19:57:23.088Z,98924.20
2023-03-06T20:02:27.918Z,98926.60
2023-03-06T20:07:36.764Z,98925.00
2023-03-06T20:12:45.005Z,98924.20
2023-03-06T20:17:48.828Z,98925.20
2023-03-06T20:22:52.943Z,98927.60
2023-03-06T20:27:56.827Z,98927.80
2023-03-06T20:33:00.997Z,98927.00
2023-03-06T20:38:04.932Z,98931.80
2023-03-06T20:43:09.262Z,98931.40
2023-03-06T20:48:13.292Z,98925.00
2023-03-06T20:53:17.258Z,98926.60
2023-03-06T20:58:22.485Z,98926.60
2023-03-06T21:03:26.301Z,98928.40
2023-03-06T21:08:31.820Z,98926.60
2023-03-06T21:13:35.720Z,98923.40
2023-03-06T21:18:40.868Z,98928.00
2023-03-06T21:23:46.239Z,98925.00
2023-03-06T21:28:50.802Z,98919.60
2023-03-06T21:33:56.072Z,98926.00
2023-03-06T21:39:00.188Z,98921.80
2023-03-06T21:44:06.685Z,98924.80
2023-03-06T21:49:10.621Z,98924.40
2023-03-06T21:54:17.497Z,98926.80
2023-03-06T21:59:26.305Z,98932.20
2023-03-06T22:04:30.473Z,98932.00
2023-03-06T22:09:37.294Z,98925.60
2023-03-06T22:14:45.100Z,98929.60
2023-03-06T22:19:50.230Z,98929.40
2023-03-06T22:24:54.634Z,98930.60
2023-03-06T22:29:58.694Z,98925.60
2023-03-06T22:35:03.139Z,98923.20
2023-03-06T22:40:08.753Z,98920.40
2023-03-06T22:45:13.081Z,98921.00
2023-03-06T22:50:17.489Z,98923.80
2023-03-06T22:55:21.193Z,98922.00
2023-03-06T23:00:25.856Z,98917.60
2023-03-06T23:05:30.288Z,98912.00
2023-03-06T23:10:40.561Z,98914.40
2023-03-06T23:15:44.433Z,98912.40
2023-03-06T23:20:48.940Z,98914.40
2023-03-06T23:25:59.287Z,98917.20
2023-03-06T23:31:23.288Z,98915.20
2023-03-06T23:36:28.495Z,98911.80
2023-03-06T23:41:32.105Z,98913.60
2023-03-06T23:46:35.899Z,98911.40
2023-03-06T23:51:39.842Z,98908.40
2023-03-06T23:56:43.572Z,98905.80
